Time;durP1;ratioP1;P1;durP2;ratioP2;P2;SDS_P1;SDS_P2;PMS_P1;PMS_P2;Temp;Humidity;BMP_temperature;BMP_pressure;BME280_temperature;BME280_humidity;BME280_pressure;Samples;Min_cycle;Max_cycle;Signal;HPM_P1;HPM_P2
2022/04/02 00:00:05;;;;;;;4.75;2.78;;;5.70;55.00;;;;;;2343802;57;21129;-74
2022/04/02 00:02:33;;;;;;;2.70;2.15;;;5.70;55.00;;;;;;2344487;57;21160;-74
2022/04/02 00:05:00;;;;;;;3.62;2.45;;;5.70;55.00;;;;;;2344269;57;21121;-74
2022/04/02 00:07:28;;;;;;;6.37;2.53;;;5.70;55.10;;;;;;2344396;57;21544;-74
2022/04/02 00:09:55;;;;;;;6.00;2.90;;;5.70;55.20;;;;;;2344296;57;21348;-74
2022/04/02 00:12:22;;;;;;;6.05;2.70;;;5.70;55.20;;;;;;2344993;57;21074;-74
2022/04/02 00:14:50;;;;;;;3.90;2.40;;;5.70;55.20;;;;;;2344159;56;21599;-74
2022/04/02 00:17:17;;;;;;;3.60;2.67;;;5.70;55.30;;;;;;2344300;57;21057;-74
2022/04/02 00:19:45;;;;;;;4.57;2.53;;;5.70;55.20;;;;;;2344640;57;21105;-74
2022/04/02 00:22:13;;;;;;;3.22;2.62;;;5.70;55.30;;;;;;2344638;57;21548;-74
2022/04/02 00:24:40;;;;;;;5.57;2.65;;;5.70;55.50;;;;;;2344588;57;21094;-74
2022/04/02 00:27:07;;;;;;;3.62;2.55;;;5.70;55.40;;;;;;2344506;57;21113;-75
2022/04/02 00:29:38;;;;;;;4.95;2.60;;;5.70;55.30;;;;;;2591660;53;21041;-74
2022/04/02 00:32:07;;;;;;;5.03;3.05;;;5.80;55.20;;;;;;2344491;57;21153;-74
2022/04/02 00:34:34;;;;;;;5.70;2.45;;;5.80;55.10;;;;;;2343380;57;21050;-74
2022/04/02 00:37:02;;;;;;;4.62;2.62;;;5.80;55.00;;;;;;2344415;57;21022;-74
2022/04/02 00:39:30;;;;;;;10.27;3.28;;;5.80;54.90;;;;;;2344659;57;21228;-74
2022/04/02 00:41:57;;;;;;;4.85;2.70;;;5.80;54.80;;;;;;2591793;53;21042;-75
2022/04/02 00:44:26;;;;;;;5.75;2.37;;;5.80;54.90;;;;;;2344788;57;21045;-74
2022/04/02 00:46:53;;;;;;;4.97;2.80;;;5.80;54.90;;;;;;2343826;57;21046;-74
2022/04/02 00:49:20;;;;;;;20.02;4.25;;;5.70;54.90;;;;;;2344323;57;21552;-74
2022/04/02 00:51:50;;;;;;;5.82;2.62;;;5.80;55.10;;;;;;2344730;57;21199;-74
2022/04/02 00:54:19;;;;;;;5.90;2.58;;;5.80;55.00;;;;;;2344862;57;21132;-74
2022/04/02 00:56:47;;;;;;;4.43;2.92;;;5.80;55.10;;;;;;2344722;57;21112;-75
2022/04/02 00:59:15;;;;;;;4.20;2.75;;;5.80;55.00;;;;;;2591601;53;21048;-74
2022/04/02 01:01:44;;;;;;;4.60;3.08;;;5.80;55.00;;;;;;2344405;57;21049;-74
2022/04/02 01:04:12;;;;;;;3.75;2.33;;;5.90;55.10;;;;;;2344219;57;21038;-74
2022/04/02 01:06:42;;;;;;;4.68;3.00;;;5.90;55.10;;;;;;2588777;52;21181;-74
2022/04/02 01:09:10;;;;;;;9.15;3.42;;;5.90;55.30;;;;;;2344309;57;21057;-74
2022/04/02 01:11:40;;;;;;;4.07;3.08;;;5.90;55.30;;;;;;2344427;57;21046;-74
2022/04/02 01:14:07;;;;;;;6.90;3.12;;;5.80;55.50;;;;;;2592136;53;21628;-75
2022/04/02 01:16:35;;;;;;;7.07;3.80;;;5.80;55.50;;;;;;2344260;57;21144;-74
2022/04/02 01:19:03;;;;;;;6.18;3.60;;;5.80;55.60;;;;;;2592032;53;21064;-74
2022/04/02 01:21:31;;;;;;;7.20;3.45;;;5.80;55.70;;;;;;2344641;57;21137;-74
2022/04/02 01:23:58;;;;;;;4.28;3.28;;;5.80;55.50;;;;;;2343811;57;21066;-74
2022/04/02 01:26:26;;;;;;;6.00;3.20;;;5.70;55.50;;;;;;2343242;57;21109;-74
2022/04/02 01:28:55;;;;;;;7.95;3.33;;;5.70;55.70;;;;;;2344705;57;21304;-74
2022/04/02 01:31:24;;;;;;;6.60;3.15;;;5.70;55.80;;;;;;2344478;57;21046;-74
2022/04/02 01:33:53;;;;;;;8.25;3.90;;;5.60;55.90;;;;;;2344788;57;21124;-74
2022/04/02 01:36:21;;;;;;;8.40;4.57;;;5.70;56.10;;;;;;2343709;57;21097;-75
2022/04/02 01:38:49;;;;;;;9.18;2.97;;;5.70;56.00;;;;;;2345129;57;21173;-74
2022/04/02 01:41:17;;;;;;;7.18;3.55;;;5.60;55.90;;;;;;2342836;57;21042;-74
2022/04/02 01:43:45;;;;;;;6.70;3.08;;;5.60;56.20;;;;;;2344495;57;21129;-75
2022/04/02 01:46:12;;;;;;;5.00;3.35;;;5.60;56.40;;;;;;2343646;57;21054;-74
2022/04/02 01:48:40;;;;;;;5.28;3.10;;;5.50;56.60;;;;;;2344633;57;21521;-74
2022/04/02 01:51:08;;;;;;;7.62;3.20;;;5.50;56.80;;;;;;2344083;57;21140;-74
2022/04/02 01:53:35;;;;;;;6.95;3.85;;;5.50;56.80;;;;;;2344922;57;21147;-74
2022/04/02 01:56:03;;;;;;;6.70;3.78;;;5.50;57.00;;;;;;2344308;57;21093;-74
2022/04/02 01:58:30;;;;;;;7.10;3.53;;;5.50;57.10;;;;;;2589611;53;21030;-75
2022/04/02 02:00:58;;;;;;;7.93;3.47;;;5.50;57.30;;;;;;2344091;57;21117;-74
2022/04/02 02:03:25;;;;;;;6.55;3.22;;;5.50;57.50;;;;;;2344800;57;21137;-74
2022/04/02 02:05:53;;;;;;;8.63;3.95;;;5.40;57.60;;;;;;2344001;57;21245;-74
2022/04/02 02:08:21;;;;;;;8.70;3.87;;;5.40;57.90;;;;;;2345039;57;21105;-75
2022/04/02 02:10:48;;;;;;;6.30;3.45;;;5.40;58.00;;;;;;2344969;57;21042;-74
2022/04/02 02:18:27;;;;;;;7.03;4.37;;;5.40;58.20;;;;;;2334972;57;27763;-73
2022/04/02 02:20:55;;;;;;;7.60;3.50;;;5.10;60.40;;;;;;2343349;57;21121;-75
2022/04/02 02:23:22;;;;;;;8.57;4.32;;;5.30;59.60;;;;;;2346170;57;21133;-75
2022/04/02 02:25:49;;;;;;;7.82;4.50;;;5.30;59.50;;;;;;2359277;56;21142;-75
2022/04/02 02:28:16;;;;;;;7.43;4.05;;;5.30;59.10;;;;;;2373546;56;21126;-75
2022/04/02 02:30:44;;;;;;;6.00;3.58;;;5.30;59.20;;;;;;2373311;56;21719;-75
2022/04/02 02:35:56;;;;;;;7.00;4.28;;;5.20;59.20;;;;;;2372665;56;21027;-73
2022/04/02 02:38:24;;;;;;;5.35;4.00;;;5.20;59.30;;;;;;2372605;56;21813;-74
2022/04/02 02:40:52;;;;;;;5.40;4.05;;;5.20;59.40;;;;;;2373397;56;21035;-75
2022/04/02 02:43:20;;;;;;;11.80;5.00;;;5.20;59.40;;;;;;2372695;56;21086;-75
2022/04/02 02:45:48;;;;;;;7.32;3.47;;;5.20;59.50;;;;;;2372976;56;21110;-75
2022/04/02 02:48:15;;;;;;;7.37;4.12;;;5.10;59.50;;;;;;2625468;52;21083;-75
2022/04/02 02:50:42;;;;;;;5.95;3.58;;;5.10;59.50;;;;;;2372964;56;21114;-75
2022/04/02 02:53:10;;;;;;;7.90;3.75;;;5.10;59.60;;;;;;2372672;56;21189;-74
2022/04/02 02:55:38;;;;;;;10.32;4.00;;;5.10;59.60;;;;;;2373083;56;21063;-75
2022/04/02 02:58:07;;;;;;;6.35;3.75;;;5.10;59.60;;;;;;2372980;56;21130;-77
2022/04/02 03:00:34;;;;;;;6.28;4.05;;;5.00;59.80;;;;;;2625552;52;21055;-74
2022/04/02 03:03:01;;;;;;;7.75;4.40;;;5.00;59.90;;;;;;2371673;56;21046;-74
2022/04/02 03:05:28;;;;;;;6.65;3.53;;;5.00;60.00;;;;;;2372313;56;21127;-76
2022/04/02 03:07:56;;;;;;;8.75;4.90;;;5.00;60.10;;;;;;2373023;56;21122;-76
2022/04/02 03:10:25;;;;;;;7.20;3.60;;;5.00;60.10;;;;;;2373448;56;21130;-77
2022/04/02 03:12:53;;;;;;;10.23;4.25;;;4.90;60.00;;;;;;2626346;52;21059;-76
2022/04/02 03:15:21;;;;;;;11.32;4.18;;;4.90;60.00;;;;;;2372655;56;21063;-75
2022/04/02 03:17:50;;;;;;;7.18;3.60;;;4.90;60.20;;;;;;2372756;56;21051;-75
2022/04/02 03:20:20;;;;;;;8.52;4.12;;;4.90;60.20;;;;;;2626944;52;21058;-75
2022/04/02 03:22:49;;;;;;;6.62;4.78;;;4.90;60.20;;;;;;2373459;56;21043;-75
2022/04/02 03:25:18;;;;;;;6.95;3.90;;;4.90;60.20;;;;;;2373074;56;21058;-74
2022/04/02 03:27:46;;;;;;;6.53;3.55;;;4.80;60.20;;;;;;2624981;52;21094;-76
2022/04/02 03:30:17;;;;;;;8.50;5.07;;;4.80;60.30;;;;;;2369965;56;21150;-75
2022/04/02 03:32:46;;;;;;;5.78;3.65;;;4.80;60.10;;;;;;2371688;56;21125;-74
2022/04/02 03:37:51;;;;;;;12.32;4.20;;;4.80;60.00;;;;;;2348619;57;22607;-74
2022/04/02 03:40:22;;;;;;;10.75;4.55;;;4.80;60.10;;;;;;2341060;57;21065;-75
2022/04/02 03:42:50;;;;;;;6.50;3.55;;;4.80;60.00;;;;;;2346092;57;21049;-75
2022/04/02 03:45:20;;;;;;;9.30;4.10;;;4.70;60.10;;;;;;2352813;56;21067;-74
2022/04/02 03:47:48;;;;;;;6.05;4.18;;;4.70;60.20;;;;;;2373028;56;21043;-75
2022/04/02 03:50:16;;;;;;;6.40;4.43;;;4.60;60.20;;;;;;2372716;56;21039;-75
2022/04/02 03:52:44;;;;;;;6.62;3.83;;;4.60;60.60;;;;;;2373601;56;21142;-75
2022/04/02 03:55:12;;;;;;;7.82;4.43;;;4.50;60.70;;;;;;2372769;56;21062;-74
2022/04/02 03:57:40;;;;;;;8.43;3.47;;;4.50;61.00;;;;;;2372948;56;21062;-75
2022/04/02 04:00:10;;;;;;;7.47;4.18;;;4.40;60.90;;;;;;2372701;56;21039;-74
2022/04/02 04:02:37;;;;;;;8.15;3.97;;;4.40;61.10;;;;;;2372745;56;21083;-74
2022/04/02 04:05:08;;;;;;;6.95;4.07;;;4.40;61.30;;;;;;2626544;52;21062;-74
2022/04/02 04:07:36;;;;;;;7.97;4.37;;;4.40;62.00;;;;;;2373611;56;21160;-73
2022/04/02 04:10:04;;;;;;;8.30;3.85;;;4.40;61.10;;;;;;2372973;56;22132;-74
2022/04/02 04:12:32;;;;;;;5.93;3.53;;;4.40;61.00;;;;;;2372230;56;21106;-74
2022/04/02 04:14:59;;;;;;;6.73;3.70;;;4.40;61.10;;;;;;2373417;56;21102;-74
2022/04/02 04:17:26;;;;;;;7.05;4.05;;;4.30;61.10;;;;;;2372784;56;21608;-74
2022/04/02 04:19:53;;;;;;;6.45;3.80;;;4.30;61.40;;;;;;2373630;56;21038;-75
2022/04/02 04:22:21;;;;;;;7.80;4.35;;;4.20;61.30;;;;;;2373009;56;21082;-75
2022/04/02 04:24:48;;;;;;;9.95;4.50;;;4.20;61.40;;;;;;2372865;56;21122;-74
2022/04/02 04:27:15;;;;;;;8.23;4.12;;;4.20;61.50;;;;;;2372829;56;21055;-74
2022/04/02 04:29:42;;;;;;;6.53;3.90;;;4.10;61.70;;;;;;2373350;56;21297;-75
2022/04/02 04:32:10;;;;;;;4.65;3.60;;;4.20;61.60;;;;;;2373292;56;21111;-75
2022/04/02 04:34:37;;;;;;;8.18;4.37;;;4.20;61.60;;;;;;2373032;56;21102;-74
2022/04/02 04:37:05;;;;;;;10.65;4.10;;;4.10;61.50;;;;;;2372594;56;21047;-74
2022/04/02 04:39:32;;;;;;;4.43;3.28;;;4.10;61.50;;;;;;2372897;56;21050;-75
2022/04/02 04:42:00;;;;;;;5.97;3.53;;;4.00;61.60;;;;;;2373044;56;21129;-75
2022/04/02 04:44:27;;;;;;;9.27;3.97;;;4.00;61.60;;;;;;2373116;56;21137;-74
2022/04/02 04:46:54;;;;;;;9.30;4.20;;;4.00;61.60;;;;;;2372597;56;21149;-75
2022/04/02 04:49:21;;;;;;;6.47;3.80;;;4.00;61.60;;;;;;2371881;56;21122;-74
2022/04/02 04:51:49;;;;;;;7.97;4.07;;;3.90;61.70;;;;;;2371317;56;21436;-74
2022/04/02 04:54:16;;;;;;;7.62;3.75;;;3.90;61.70;;;;;;2372074;56;21114;-76
2022/04/02 04:56:43;;;;;;;8.95;4.03;;;3.80;61.90;;;;;;2371445;56;21157;-74
2022/04/02 04:59:10;;;;;;;10.95;4.37;;;3.80;62.10;;;;;;2371940;56;22103;-75
2022/04/02 05:01:38;;;;;;;6.20;3.37;;;3.80;62.10;;;;;;2371851;56;21067;-74
2022/04/02 05:04:06;;;;;;;6.70;4.53;;;3.80;61.70;;;;;;2371839;56;21138;-74
2022/04/02 05:06:34;;;;;;;8.90;3.62;;;3.80;61.70;;;;;;2371430;56;21119;-75
2022/04/02 05:09:02;;;;;;;12.23;4.20;;;3.80;61.60;;;;;;2624215;52;21585;-74
2022/04/02 05:14:05;;;;;;;5.78;3.70;;;3.70;61.40;;;;;;2353635;57;22082;-75
2022/04/02 05:16:32;;;;;;;5.05;3.40;;;3.70;61.60;;;;;;2619762;52;21023;-75
2022/04/02 05:19:00;;;;;;;8.18;3.75;;;3.60;61.50;;;;;;2373705;56;21525;-76
2022/04/02 05:21:27;;;;;;;5.53;3.75;;;3.60;61.50;;;;;;2372994;56;21055;-75
2022/04/02 05:23:54;;;;;;;6.47;3.87;;;3.60;61.70;;;;;;2373821;56;21039;-75
2022/04/02 05:26:22;;;;;;;8.43;3.40;;;3.50;62.10;;;;;;2371680;56;21039;-76
2022/04/02 05:28:49;;;;;;;5.45;3.40;;;3.60;62.00;;;;;;2372703;56;21042;-75
2022/04/02 05:31:16;;;;;;;5.65;3.12;;;3.60;62.00;;;;;;2373205;56;21484;-75
2022/04/02 05:33:43;;;;;;;5.15;3.12;;;3.60;61.80;;;;;;2372663;56;21098;-76
2022/04/02 05:36:11;;;;;;;5.57;3.05;;;3.50;61.60;;;;;;2372858;56;21050;-76
2022/04/02 05:38:38;;;;;;;5.50;3.30;;;3.60;61.50;;;;;;2373317;56;21126;-75
2022/04/02 05:41:05;;;;;;;7.22;4.03;;;3.50;61.60;;;;;;2373137;56;21059;-74
2022/04/02 05:43:32;;;;;;;4.40;3.33;;;3.50;61.60;;;;;;2373465;56;21205;-75
2022/04/02 05:46:00;;;;;;;6.25;3.70;;;3.50;61.60;;;;;;2372458;56;21623;-74
2022/04/02 05:48:28;;;;;;;7.50;3.42;;;3.60;61.40;;;;;;2372777;56;21043;-74
2022/04/02 05:50:55;;;;;;;4.82;3.00;;;3.60;61.30;;;;;;2373716;56;22163;-75
2022/04/02 05:53:23;;;;;;;6.15;3.30;;;3.50;61.50;;;;;;2373082;56;21146;-74
2022/04/02 05:55:50;;;;;;;8.32;3.25;;;3.50;61.70;;;;;;2371896;56;21051;-75
2022/04/02 05:58:18;;;;;;;7.28;3.33;;;3.50;61.90;;;;;;2373156;56;21055;-74
2022/04/02 06:00:45;;;;;;;4.93;3.62;;;3.50;61.70;;;;;;2372874;56;21099;-74
2022/04/02 06:03:15;;;;;;;7.85;3.35;;;3.50;61.60;;;;;;2373362;56;21111;-76
2022/04/02 06:05:43;;;;;;;7.80;3.30;;;3.50;61.90;;;;;;2372859;56;21043;-75
2022/04/02 06:08:10;;;;;;;5.85;3.50;;;3.40;62.20;;;;;;2372929;56;21110;-75
2022/04/02 06:10:38;;;;;;;7.43;3.40;;;3.50;62.10;;;;;;2372712;56;21377;-74
2022/04/02 06:15:43;;;;;;;5.53;3.37;;;3.50;62.40;;;;;;2341155;57;22162;-74
2022/04/02 06:18:11;;;;;;;5.55;2.92;;;3.50;62.40;;;;;;2345899;57;21439;-75
2022/04/02 06:20:39;;;;;;;5.85;3.15;;;3.50;62.10;;;;;;2345426;57;21085;-74
2022/04/02 06:23:06;;;;;;;3.78;2.65;;;3.50;62.10;;;;;;2345332;57;21113;-76
2022/04/02 06:25:33;;;;;;;5.10;2.90;;;3.60;62.00;;;;;;2345235;57;22081;-76
2022/04/02 06:28:00;;;;;;;3.78;2.72;;;3.60;61.70;;;;;;2344818;57;21187;-73
2022/04/02 06:30:28;;;;;;;3.75;2.85;;;3.60;61.80;;;;;;2345851;57;21125;-75
2022/04/02 06:32:55;;;;;;;5.43;3.08;;;3.70;61.60;;;;;;2344630;57;21058;-75
2022/04/02 06:35:23;;;;;;;4.90;2.83;;;3.70;61.20;;;;;;2345229;57;21120;-75
2022/04/02 06:37:50;;;;;;;4.93;2.75;;;3.80;60.90;;;;;;2344956;57;21096;-73
2022/04/02 06:40:18;;;;;;;6.03;2.78;;;3.80;60.70;;;;;;2345716;57;21046;-73
2022/04/02 06:42:45;;;;;;;9.95;3.12;;;3.80;60.60;;;;;;2345182;57;21101;-73
2022/04/02 06:45:12;;;;;;;4.75;2.55;;;3.80;60.50;;;;;;2344110;57;21131;-72
2022/04/02 06:47:40;;;;;;;4.15;2.35;;;3.80;60.60;;;;;;2344730;57;21128;-74
2022/04/02 06:50:09;;;;;;;5.60;2.85;;;3.90;60.40;;;;;;2345464;57;21045;-74
2022/04/02 06:52:37;;;;;;;6.25;2.85;;;3.90;60.20;;;;;;2345394;57;21113;-73
2022/04/02 06:55:08;;;;;;;6.72;2.80;;;3.90;59.90;;;;;;2345573;57;21383;-74
2022/04/02 06:57:41;;;;;;;5.93;2.90;;;4.00;59.90;;;;;;2345284;57;21094;-74
2022/04/02 07:00:09;;;;;;;;;;;4.00;59.80;;;;;;2348623;57;21042;-74
2022/04/02 07:02:36;;;;;;;4.05;2.97;;;4.10;59.40;;;;;;2341678;57;20078;-76
2022/04/02 07:05:05;;;;;;;9.98;2.80;;;4.00;59.10;;;;;;2341421;57;21623;-75
2022/04/02 07:07:32;;;;;;;5.65;2.80;;;4.00;59.00;;;;;;2344562;57;21140;-74
2022/04/02 07:10:00;;;;;;;3.67;2.17;;;4.00;59.10;;;;;;2590911;52;21547;-74
2022/04/02 07:12:27;;;;;;;3.45;2.58;;;4.10;59.20;;;;;;2344617;57;21120;-74
2022/04/02 07:14:55;;;;;;;3.30;2.53;;;4.10;59.20;;;;;;2345038;57;21136;-74
2022/04/02 07:17:22;;;;;;;4.87;2.20;;;4.20;58.80;;;;;;2343059;57;21714;-75
2022/04/02 07:19:52;;;;;;;4.93;2.60;;;4.30;59.10;;;;;;2343123;57;21112;-75
2022/04/02 07:22:22;;;;;;;3.72;2.55;;;4.30;58.50;;;;;;2343327;57;21352;-75
2022/04/02 07:24:50;;;;;;;4.45;2.47;;;4.40;58.00;;;;;;2343273;57;21117;-75
2022/04/02 07:27:20;;;;;;;3.60;2.47;;;4.40;57.90;;;;;;2341780;57;21387;-74
2022/04/02 07:29:49;;;;;;;3.72;2.47;;;4.40;57.60;;;;;;2343988;57;21117;-74
2022/04/02 07:32:16;;;;;;;3.97;2.30;;;4.40;57.60;;;;;;2343269;57;21057;-74
2022/04/02 07:34:43;;;;;;;4.87;2.60;;;4.40;57.50;;;;;;2341037;57;21053;-73
2022/04/02 07:37:20;;;;;;;4.97;2.40;;;4.50;57.50;;;;;;2339944;57;21050;-75
2022/04/02 07:39:54;;;;;;;2.85;2.40;;;4.50;57.50;;;;;;2340628;57;21070;-75
2022/04/02 07:45:04;;;;;;;3.78;2.30;;;4.60;57.60;;;;;;2345700;57;22847;-74
2022/04/02 07:47:33;;;;;;;4.28;2.40;;;4.70;57.70;;;;;;2341394;57;21117;-74
2022/04/02 07:50:22;;;;;;;3.90;2.33;;;4.70;57.80;;;;;;2378684;53;21091;-77
2022/04/02 07:52:52;;;;;;;5.15;1.98;;;4.80;57.50;;;;;;2251841;60;21063;-71
2022/04/02 07:55:20;;;;;;;3.28;2.00;;;4.90;57.70;;;;;;2252281;60;21082;-69
2022/04/02 07:57:49;;;;;;;5.10;2.70;;;4.90;55.90;;;;;;2251733;60;21079;-69
2022/04/02 08:00:19;;;;;;;2.92;1.83;;;5.00;56.00;;;;;;2368823;56;21126;-72
2022/04/02 08:02:48;;;;;;;3.42;2.10;;;5.00;55.90;;;;;;2251375;60;21060;-73
2022/04/02 08:05:17;;;;;;;2.40;2.10;;;5.00;55.70;;;;;;2251045;60;21678;-71
2022/04/02 08:07:49;;;;;;;3.97;2.30;;;5.10;55.30;;;;;;2248889;60;21143;-72
2022/04/02 08:10:18;;;;;;;5.00;2.30;;;5.10;55.10;;;;;;2253036;56;21055;-72
2022/04/02 08:12:46;;;;;;;5.05;2.47;;;5.10;54.80;;;;;;2251484;60;21567;-73
2022/04/02 08:15:16;;;;;;;4.32;2.28;;;5.20;54.40;;;;;;2250618;60;21151;-71
2022/04/02 08:17:45;;;;;;;3.70;2.12;;;5.20;54.40;;;;;;2252497;60;21051;-73
2022/04/02 08:20:15;;;;;;;6.55;2.85;;;5.20;55.10;;;;;;2251453;60;21079;-72
2022/04/02 08:22:42;;;;;;;4.18;2.50;;;5.30;54.80;;;;;;2251761;60;21127;-73
2022/04/02 08:25:10;;;;;;;4.90;2.60;;;5.30;53.80;;;;;;2285137;56;21616;-72
2022/04/02 08:27:53;;;;;;;3.15;2.20;;;5.30;54.10;;;;;;2250264;60;21055;-72
2022/04/02 08:30:30;;;;;;;5.57;2.20;;;5.30;53.90;;;;;;2251384;60;21557;-72
2022/04/02 08:33:15;;;;;;;4.50;2.37;;;5.30;53.70;;;;;;2250218;60;21066;-71
2022/04/02 08:35:52;;;;;;;2.30;2.05;;;5.40;53.70;;;;;;2249465;60;21075;-72
2022/04/02 08:38:32;;;;;;;3.15;2.40;;;5.40;53.50;;;;;;2250049;60;21060;-72
2022/04/02 08:45:02;;;;;;;3.67;2.30;;;5.40;52.70;;;;;;2353578;57;22659;-73
2022/04/02 08:47:57;;;;;;;3.45;2.10;;;5.40;52.30;;;;;;2317502;58;21155;-73
2022/04/02 08:50:30;;;;;;;3.12;2.22;;;5.40;52.30;;;;;;2318181;58;21808;-74
2022/04/02 08:53:13;;;;;;;2.80;2.35;;;5.30;51.40;;;;;;2318763;58;21211;-73
2022/04/02 08:55:47;;;;;;;4.55;2.15;;;5.40;51.70;;;;;;2319532;58;21039;-73
2022/04/02 08:58:26;;;;;;;4.80;2.53;;;5.40;51.80;;;;;;2318389;58;21056;-73
2022/04/02 09:01:06;;;;;;;4.55;2.20;;;5.40;50.70;;;;;;2318452;58;21143;-73
2022/04/02 09:04:25;;;;;;;2.90;2.10;;;5.40;50.40;;;;;;2318793;58;21063;-73
2022/04/02 09:07:30;;;;;;;3.95;2.10;;;5.40;50.90;;;;;;2318953;58;21130;-73
2022/04/02 09:10:25;;;;;;;2.58;1.75;;;5.30;51.30;;;;;;2322411;54;21350;-73
2022/04/02 09:13:10;;;;;;;5.85;2.05;;;5.40;51.30;;;;;;2319490;58;21044;-73
2022/04/02 09:15:56;;;;;;;2.55;1.90;;;5.50;50.30;;;;;;2320157;58;21187;-73
2022/04/02 09:18:37;;;;;;;4.05;2.30;;;5.60;50.40;;;;;;2320054;55;21123;-73
2022/04/02 09:21:38;;;;;;;2.45;1.75;;;5.70;49.90;;;;;;2320277;58;21064;-72
2022/04/02 09:24:12;;;;;;;3.42;2.17;;;5.70;49.60;;;;;;2318848;58;21076;-73
2022/04/02 09:27:07;;;;;;;;;;;5.70;48.20;;;;;;2322673;58;21068;-73
2022/04/02 09:29:49;;;;;;;2.97;2.03;;;5.80;45.80;;;;;;2319613;58;20800;-73
2022/04/02 09:32:47;;;;;;;2.08;1.50;;;5.70;46.60;;;;;;2319874;58;21039;-73
2022/04/02 09:35:54;;;;;;;3.47;1.98;;;5.70;46.00;;;;;;2319293;58;21047;-72
2022/04/02 09:41:28;;;;;;;2.12;1.92;;;5.80;47.70;;;;;;2387228;54;22090;-73
2022/04/02 09:44:07;;;;;;;3.50;2.20;;;5.90;47.80;;;;;;2318745;58;22075;-73
2022/04/02 09:46:59;;;;;;;3.37;2.00;;;5.90;46.50;;;;;;2318894;58;21060;-73
2022/04/02 09:49:39;;;;;;;2.72;1.90;;;6.10;46.90;;;;;;2319052;58;21025;-73
2022/04/02 09:52:08;;;;;;;3.92;2.20;;;6.10;47.30;;;;;;2318599;58;21199;-73
2022/04/02 09:54:44;;;;;;;2.75;2.15;;;6.20;47.10;;;;;;2319199;58;21068;-74
2022/04/02 09:57:24;;;;;;;1.87;1.77;;;6.30;45.90;;;;;;2316910;58;21120;-74
2022/04/02 10:00:03;;;;;;;2.75;1.62;;;6.30;45.70;;;;;;2318201;58;21111;-73
2022/04/02 10:02:50;;;;;;;2.70;1.60;;;6.40;45.40;;;;;;2396407;54;21046;-73
2022/04/02 10:05:22;;;;;;;2.92;1.80;;;6.50;44.90;;;;;;2318883;58;21148;-73
2022/04/02 10:10:31;;;;;;;2.33;1.60;;;6.70;45.00;;;;;;2354680;57;22070;-73
2022/04/02 10:13:00;;;;;;;2.90;2.10;;;6.90;46.00;;;;;;2346791;57;21045;-73
2022/04/02 10:15:30;;;;;;;2.08;1.87;;;6.90;46.00;;;;;;2356846;56;21629;-73
2022/04/02 10:18:03;;;;;;;2.33;1.77;;;7.00;45.30;;;;;;2374297;56;21185;-73
2022/04/02 10:20:33;;;;;;;2.80;1.90;;;7.10;45.00;;;;;;2374934;56;21034;-73
2022/04/02 10:23:06;;;;;;;4.93;1.85;;;7.20;44.70;;;;;;2375226;56;21043;-73
2022/04/02 10:25:38;;;;;;;2.45;1.83;;;7.30;44.90;;;;;;2373765;56;21050;-73
2022/04/02 10:28:12;;;;;;;5.55;2.10;;;7.50;44.20;;;;;;2375087;56;21062;-73
2022/04/02 10:30:40;;;;;;;2.45;1.62;;;7.60;44.90;;;;;;2391633;52;21039;-73
2022/04/02 10:33:29;;;;;;;3.65;1.80;;;7.70;44.80;;;;;;2374566;56;21083;-73
2022/04/02 10:35:57;;;;;;;2.12;1.85;;;7.80;44.30;;;;;;2374500;56;21415;-72
2022/04/02 10:38:35;;;;;;;5.62;2.55;;;7.90;44.10;;;;;;2374809;56;21047;-73
2022/04/02 10:41:07;;;;;;;1.85;1.42;;;7.90;43.20;;;;;;2374275;56;21087;-73
2022/04/02 10:43:43;;;;;;;2.70;1.50;;;8.00;43.40;;;;;;2375255;56;21066;-73
2022/04/02 10:46:13;;;;;;;1.83;1.70;;;8.10;43.90;;;;;;2373947;56;21118;-74
2022/04/02 10:48:54;;;;;;;2.47;1.80;;;8.20;43.70;;;;;;2374582;56;21149;-73
2022/04/02 10:51:24;;;;;;;4.18;1.87;;;8.20;42.50;;;;;;2372796;56;21069;-73
2022/04/02 10:54:00;;;;;;;4.05;1.73;;;8.30;42.60;;;;;;2373428;56;21123;-73
2022/04/02 10:56:34;;;;;;;1.70;1.60;;;8.40;43.80;;;;;;2371554;56;21123;-74
2022/04/02 10:59:02;;;;;;;8.35;2.28;;;8.50;43.00;;;;;;2373645;56;21142;-74
2022/04/02 11:01:32;;;;;;;3.17;2.00;;;8.50;42.30;;;;;;2373077;56;21095;-73
2022/04/02 11:04:13;;;;;;;3.47;2.40;;;8.60;42.80;;;;;;2372647;56;21059;-74
2022/04/02 11:06:46;;;;;;;2.37;1.77;;;8.70;42.70;;;;;;2372177;56;21209;-76
2022/04/02 11:09:29;;;;;;;2.15;1.95;;;8.70;42.10;;;;;;2372887;56;21043;-75
2022/04/02 11:11:59;;;;;;;3.50;2.00;;;8.70;41.30;;;;;;2372983;56;21035;-75
2022/04/02 11:14:27;;;;;;;3.90;2.10;;;8.60;41.00;;;;;;2371542;56;21098;-76
2022/04/02 11:16:55;;;;;;;2.00;1.80;;;8.60;40.00;;;;;;2372993;56;21054;-75
2022/04/02 11:22:15;;;;;;;2.10;1.90;;;8.60;39.50;;;;;;2406867;52;20999;-74
2022/04/02 11:24:57;;;;;;;2.85;1.60;;;8.50;39.80;;;;;;2386013;52;21055;-73
2022/04/02 11:27:27;;;;;;;2.62;1.75;;;8.50;39.10;;;;;;2371381;56;21636;-74
2022/04/02 11:30:03;;;;;;;2.17;1.90;;;8.60;39.60;;;;;;2370758;56;21055;-74
2022/04/02 11:32:39;;;;;;;4.95;2.40;;;8.60;40.00;;;;;;2369146;56;21042;-73
2022/04/02 11:35:10;;;;;;;2.83;1.65;;;8.70;40.60;;;;;;2370360;56;21054;-73
2022/04/02 11:37:51;;;;;;;2.87;2.12;;;8.80;40.40;;;;;;2373570;52;21593;-73
2022/04/02 11:40:20;;;;;;;2.35;2.00;;;8.80;40.00;;;;;;2384060;52;21031;-73
2022/04/02 11:42:48;;;;;;;2.10;1.80;;;8.80;37.90;;;;;;2365732;56;21137;-72
2022/04/02 11:45:20;;;;;;;2.05;1.80;;;8.80;37.60;;;;;;2363668;56;21067;-72
2022/04/02 11:47:56;;;;;;;2.10;1.50;;;8.70;37.80;;;;;;2363418;56;21090;-72
2022/04/02 11:50:25;;;;;;;2.80;1.35;;;8.80;38.00;;;;;;2363771;56;21134;-72
2022/04/02 11:52:54;;;;;;;3.55;1.80;;;8.80;36.50;;;;;;2363848;56;21154;-72
2022/04/02 11:55:23;;;;;;;3.95;1.70;;;8.70;36.10;;;;;;2364383;56;21070;-73
2022/04/02 12:00:58;;;;;;;2.60;1.70;;;8.80;35.80;;;;;;2267431;59;22227;-74
2022/04/02 12:03:27;;;;;;;3.00;1.87;;;8.80;36.80;;;;;;2288899;58;21043;-73
2022/04/02 12:08:32;;;;;;;2.75;1.60;;;8.90;39.00;;;;;;2265036;59;22152;-73
2022/04/02 12:11:03;;;;;;;2.30;1.48;;;8.90;37.50;;;;;;2298789;55;21111;-73
2022/04/02 12:13:30;;;;;;;2.70;1.55;;;8.90;36.30;;;;;;2284731;58;21357;-72
2022/04/02 12:16:09;;;;;;;1.75;1.40;;;9.00;36.20;;;;;;2284557;58;21130;-73
2022/04/02 12:18:53;;;;;;;2.20;1.60;;;9.00;33.60;;;;;;2287024;58;21257;-73
2022/04/02 12:21:32;;;;;;;3.05;1.48;;;9.00;34.30;;;;;;2286910;58;21055;-72
2022/04/02 12:24:01;;;;;;;1.58;1.30;;;9.00;34.50;;;;;;2287498;58;21110;-72
2022/04/02 12:26:28;;;;;;;2.72;2.37;;;9.00;34.20;;;;;;2286630;58;21051;-72
2022/04/02 12:28:58;;;;;;;1.77;1.40;;;9.00;35.40;;;;;;2286552;58;21633;-73
2022/04/02 12:31:27;;;;;;;3.53;2.65;;;9.00;35.30;;;;;;2287806;58;21067;-73
2022/04/02 12:33:55;;;;;;;3.78;1.50;;;9.00;35.10;;;;;;2340975;55;21138;-73
2022/04/02 12:36:31;;;;;;;1.52;1.25;;;9.00;34.60;;;;;;2288189;58;21035;-73
2022/04/02 12:41:46;;;;;;;1.85;1.30;;;9.00;33.90;;;;;;2352345;57;22517;-74
2022/04/02 12:44:18;;;;;;;2.78;1.40;;;9.10;34.60;;;;;;2345801;57;21065;-74
2022/04/02 12:46:46;;;;;;;2.58;1.52;;;9.10;35.40;;;;;;2369709;56;21134;-74
2022/04/02 12:49:29;;;;;;;3.87;1.52;;;9.20;35.90;;;;;;2371126;56;21561;-74
2022/04/02 12:52:11;;;;;;;2.30;1.90;;;9.30;36.80;;;;;;2373517;56;21043;-74
2022/04/02 12:54:44;;;;;;;3.00;1.60;;;9.40;37.10;;;;;;2374969;56;21047;-74
2022/04/02 12:57:13;;;;;;;1.92;1.45;;;9.50;36.20;;;;;;2593426;52;21035;-74
2022/04/02 12:59:43;;;;;;;2.15;1.60;;;9.50;35.90;;;;;;2375015;56;21039;-75
2022/04/02 13:02:15;;;;;;;2.17;1.30;;;9.40;35.50;;;;;;2419941;52;21043;-74
2022/04/02 13:04:50;;;;;;;2.25;1.40;;;9.40;35.10;;;;;;2391540;52;21166;-74
2022/04/02 13:07:20;;;;;;;3.55;1.37;;;9.30;34.70;;;;;;2372774;56;21106;-74
2022/04/02 13:09:50;;;;;;;3.35;1.40;;;9.10;33.50;;;;;;2374846;56;21032;-74
2022/04/02 13:12:22;;;;;;;1.40;1.12;;;9.10;34.90;;;;;;2373676;56;21035;-74
2022/04/02 13:14:59;;;;;;;1.92;1.30;;;9.20;35.50;;;;;;2374104;56;21035;-74
2022/04/02 13:17:38;;;;;;;1.42;1.30;;;9.30;35.90;;;;;;2372548;56;21047;-74
2022/04/02 13:22:55;;;;;;;2.15;1.40;;;9.30;36.10;;;;;;2374168;52;20998;-72
2022/04/02 13:25:23;;;;;;;1.50;1.30;;;9.20;34.60;;;;;;2375712;52;21412;-72
2022/04/02 13:30:56;;;;;;;4.30;1.70;;;9.10;35.40;;;;;;2355345;57;22631;-72
2022/04/02 13:34:01;;;;;;;1.35;1.17;;;9.10;36.20;;;;;;2346950;57;21060;-74
2022/04/02 13:36:41;;;;;;;2.25;1.30;;;9.10;36.60;;;;;;2425257;52;21106;-74
2022/04/02 13:39:12;;;;;;;1.77;1.35;;;9.00;37.70;;;;;;2374409;56;21043;-74
2022/04/02 13:41:41;;;;;;;1.73;1.12;;;9.00;35.70;;;;;;2374340;56;21600;-74
2022/04/02 13:44:17;;;;;;;2.08;1.30;;;9.00;35.70;;;;;;2374795;56;21027;-74
2022/04/02 13:46:49;;;;;;;1.62;1.45;;;8.90;36.00;;;;;;2373917;56;21094;-74
2022/04/02 13:49:29;;;;;;;1.20;1.10;;;8.80;35.80;;;;;;2374326;56;21058;-74
2022/04/02 13:51:57;;;;;;;2.12;1.55;;;8.80;36.30;;;;;;2468378;54;21427;-73
2022/04/02 13:54:29;;;;;;;4.28;1.70;;;8.70;35.80;;;;;;2540134;54;21196;-77
2022/04/02 13:57:00;;;;;;;3.03;1.77;;;8.60;36.00;;;;;;2537769;54;21062;-75
2022/04/02 13:59:30;;;;;;;2.85;1.52;;;8.50;36.10;;;;;;2296753;58;21149;-75
2022/04/02 14:01:58;;;;;;;2.60;1.35;;;8.50;36.80;;;;;;2299753;58;21054;-75